sensor_id;sensor_type;location;lat;lon;timestamp;pressure;altitude;pressure_sealevel;temperature;humidity
69402;BME280;56589;51.992;5.924;2023-11-19T00:01:03;100243.94;;;11.74;100.00
69402;BME280;56589;51.992;5.924;2023-11-19T00:03:29;100241.19;;;11.76;100.00
69402;BME280;56589;51.992;5.924;2023-11-19T00:05:55;100236.75;;;11.76;100.00
69402;BME280;56589;51.992;5.924;2023-11-19T00:08:20;100240.00;;;11.80;100.00
69402;BME280;56589;51.992;5.924;2023-11-19T00:10:49;100228.63;;;11.79;99.89
69402;BME280;56589;51.992;5.924;2023-11-19T00:13:15;100231.97;;;11.81;100.00
69402;BME280;56589;51.992;5.924;2023-11-19T00:15:40;100225.75;;;11.82;99.77
69402;BME280;56589;51.992;5.924;2023-11-19T00:18:06;100221.34;;;11.83;99.78
69402;BME280;56589;51.992;5.924;2023-11-19T00:20:32;100222.06;;;11.85;100.00
69402;BME280;56589;51.992;5.924;2023-11-19T00:22:58;100217.63;;;11.85;100.00
69402;BME280;56589;51.992;5.924;2023-11-19T00:25:23;100210.44;;;11.87;100.00
69402;BME280;56589;51.992;5.924;2023-11-19T00:27:52;100207.59;;;11.90;99.99
69402;BME280;56589;51.992;5.924;2023-11-19T00:30:17;100214.53;;;11.91;100.00
69402;BME280;56589;51.992;5.924;2023-11-19T00:32:43;100207.47;;;11.92;100.00
69402;BME280;56589;51.992;5.924;2023-11-19T00:35:09;100212.59;;;11.94;99.87
69402;BME280;56589;51.992;5.924;2023-11-19T00:37:35;100220.50;;;11.94;99.77
69402;BME280;56589;51.992;5.924;2023-11-19T00:40:01;100215.13;;;11.95;99.73
69402;BME280;56589;51.992;5.924;2023-11-19T00:42:28;100200.19;;;11.96;99.84
69402;BME280;56589;51.992;5.924;2023-11-19T00:44:56;100204.47;;;11.97;99.88
69402;BME280;56589;51.992;5.924;2023-11-19T00:47:22;100210.56;;;11.97;100.00
69402;BME280;56589;51.992;5.924;2023-11-19T00:49:48;100212.38;;;11.97;99.74
69402;BME280;56589;51.992;5.924;2023-11-19T00:52:13;100208.78;;;11.98;99.68
69402;BME280;56589;51.992;5.924;2023-11-19T00:54:39;100212.25;;;11.98;99.99
69402;BME280;56589;51.992;5.924;2023-11-19T00:57:05;100201.59;;;12.00;100.00
69402;BME280;56589;51.992;5.924;2023-11-19T00:59:31;100198.00;;;12.01;100.00
69402;BME280;56589;51.992;5.924;2023-11-19T01:01:59;100191.91;;;12.00;100.00
69402;BME280;56589;51.992;5.924;2023-11-19T01:04:25;100191.81;;;12.02;99.94
69402;BME280;56589;51.992;5.924;2023-11-19T01:06:51;100180.19;;;12.04;99.67
69402;BME280;56589;51.992;5.924;2023-11-19T01:09:16;100179.22;;;12.05;100.00
69402;BME280;56589;51.992;5.924;2023-11-19T01:11:42;100185.44;;;12.04;99.96
69402;BME280;56589;51.992;5.924;2023-11-19T01:14:08;100188.06;;;12.04;99.77
69402;BME280;56589;51.992;5.924;2023-11-19T01:16:34;100172.16;;;12.06;99.54
69402;BME280;56589;51.992;5.924;2023-11-19T01:19:02;100173.00;;;12.06;99.90
69402;BME280;56589;51.992;5.924;2023-11-19T01:21:28;100191.41;;;12.06;99.45
69402;BME280;56589;51.992;5.924;2023-11-19T01:23:53;100192.97;;;12.09;99.49
69402;BME280;56589;51.992;5.924;2023-11-19T01:26:19;100187.72;;;12.09;99.64
69402;BME280;56589;51.992;5.924;2023-11-19T01:28:45;100191.19;;;12.09;99.38
69402;BME280;56589;51.992;5.924;2023-11-19T01:31:11;100199.06;;;12.09;99.60
69402;BME280;56589;51.992;5.924;2023-11-19T01:33:37;100199.06;;;12.09;99.86
69402;BME280;56589;51.992;5.924;2023-11-19T01:36:06;100198.13;;;12.10;99.76
69402;BME280;56589;51.992;5.924;2023-11-19T01:38:32;100186.63;;;12.11;99.51
69402;BME280;56589;51.992;5.924;2023-11-19T01:40:58;100177.91;;;12.11;99.53
69402;BME280;56589;51.992;5.924;2023-11-19T01:43:33;100177.06;;;12.10;99.71
69402;BME280;56589;51.992;5.924;2023-11-19T01:46:00;100172.88;;;12.08;99.57
69402;BME280;56589;51.992;5.924;2023-11-19T01:48:26;100148.25;;;12.09;99.64
69402;BME280;56589;51.992;5.924;2023-11-19T01:50:53;100166.66;;;12.09;99.58
69402;BME280;56589;51.992;5.924;2023-11-19T01:53:24;100166.53;;;12.10;99.42
69402;BME280;56589;51.992;5.924;2023-11-19T01:55:50;100165.69;;;12.10;98.81
69402;BME280;56589;51.992;5.924;2023-11-19T01:58:17;100156.97;;;12.09;99.46
69402;BME280;56589;51.992;5.924;2023-11-19T02:00:45;100168.34;;;12.10;99.26
69402;BME280;56589;51.992;5.924;2023-11-19T02:03:11;100167.50;;;12.09;99.31
69402;BME280;56589;51.992;5.924;2023-11-19T02:05:38;100166.66;;;12.09;99.25
69402;BME280;56589;51.992;5.924;2023-11-19T02:08:05;100164.03;;;12.09;99.37
69402;BME280;56589;51.992;5.924;2023-11-19T02:10:33;100157.09;;;12.08;99.05
69402;BME280;56589;51.992;5.924;2023-11-19T02:13:00;100149.22;;;12.08;99.01
69402;BME280;56589;51.992;5.924;2023-11-19T02:15:26;100148.34;;;12.07;98.86
69402;BME280;56589;51.992;5.924;2023-11-19T02:17:52;100149.31;;;12.06;99.03
69402;BME280;56589;51.992;5.924;2023-11-19T02:20:18;100154.56;;;12.06;99.08
69402;BME280;56589;51.992;5.924;2023-11-19T02:22:44;100143.22;;;12.06;98.69
69402;BME280;56589;51.992;5.924;2023-11-19T02:25:19;100148.47;;;12.06;98.77
69402;BME280;56589;51.992;5.924;2023-11-19T02:27:56;100154.84;;;12.03;98.50
69402;BME280;56589;51.992;5.924;2023-11-19T02:30:24;100149.56;;;12.03;98.96
69402;BME280;56589;51.992;5.924;2023-11-19T02:32:50;100145.28;;;12.02;98.61
69402;BME280;56589;51.992;5.924;2023-11-19T02:35:15;100149.69;;;12.02;98.69
69402;BME280;56589;51.992;5.924;2023-11-19T02:37:41;100155.91;;;12.01;98.78
69402;BME280;56589;51.992;5.924;2023-11-19T02:40:07;100152.34;;;12.02;98.39
69402;BME280;56589;51.992;5.924;2023-11-19T02:42:33;100152.44;;;12.00;98.21
69402;BME280;56589;51.992;5.924;2023-11-19T02:45:02;100162.97;;;12.00;98.53
69402;BME280;56589;51.992;5.924;2023-11-19T02:47:28;100159.63;;;11.98;98.21
69402;BME280;56589;51.992;5.924;2023-11-19T02:49:53;100159.75;;;11.97;97.88
69402;BME280;56589;51.992;5.924;2023-11-19T02:52:19;100159.88;;;11.95;98.27
69402;BME280;56589;51.992;5.924;2023-11-19T02:54:45;100167.78;;;11.95;98.17
69402;BME280;56589;51.992;5.924;2023-11-19T02:57:11;100167.03;;;11.93;97.95
69402;BME280;56589;51.992;5.924;2023-11-19T02:59:39;100152.22;;;11.92;97.96
69402;BME280;56589;51.992;5.924;2023-11-19T03:02:08;100156.66;;;11.91;97.49
69402;BME280;56589;51.992;5.924;2023-11-19T03:04:33;100158.66;;;11.88;97.61
69402;BME280;56589;51.992;5.924;2023-11-19T03:06:59;100164.06;;;11.86;97.54
69402;BME280;56589;51.992;5.924;2023-11-19T03:09:25;100150.22;;;11.84;97.08
69402;BME280;56589;51.992;5.924;2023-11-19T03:11:51;100148.53;;;11.83;97.09
69402;BME280;56589;51.992;5.924;2023-11-19T03:14:16;100145.31;;;11.80;97.13
69402;BME280;56589;51.992;5.924;2023-11-19T03:16:45;100155.13;;;11.78;97.27
69402;BME280;56589;51.992;5.924;2023-11-19T03:19:13;100153.69;;;11.74;97.03
69402;BME280;56589;51.992;5.924;2023-11-19T03:21:39;100151.31;;;11.71;96.70
69402;BME280;56589;51.992;5.924;2023-11-19T03:24:05;100158.59;;;11.67;96.78
69402;BME280;56589;51.992;5.924;2023-11-19T03:26:31;100164.81;;;11.66;96.58
69402;BME280;56589;51.992;5.924;2023-11-19T03:28:57;100164.06;;;11.64;96.76
69402;BME280;56589;51.992;5.924;2023-11-19T03:31:23;100163.38;;;11.62;96.35
69402;BME280;56589;51.992;5.924;2023-11-19T03:33:50;100166.25;;;11.59;96.40
69402;BME280;56589;51.992;5.924;2023-11-19T03:36:19;100158.59;;;11.56;96.42
69402;BME280;56589;51.992;5.924;2023-11-19T03:38:44;100162.19;;;11.55;96.33
69402;BME280;56589;51.992;5.924;2023-11-19T03:41:10;100163.25;;;11.52;95.95
69402;BME280;56589;51.992;5.924;2023-11-19T03:43:36;100164.31;;;11.50;96.09
69402;BME280;56589;51.992;5.924;2023-11-19T03:46:02;100160.25;;;11.46;95.81
69402;BME280;56589;51.992;5.924;2023-11-19T03:48:28;100153.56;;;11.42;96.08
69402;BME280;56589;51.992;5.924;2023-11-19T03:50:54;100146.03;;;11.37;95.61
69402;BME280;56589;51.992;5.924;2023-11-19T03:53:23;100146.38;;;11.32;95.58
69402;BME280;56589;51.992;5.924;2023-11-19T03:55:48;100141.59;;;11.26;95.46
69402;BME280;56589;51.992;5.924;2023-11-19T03:58:14;100153.56;;;11.19;95.62
69402;BME280;56589;51.992;5.924;2023-11-19T04:00:40;100146.38;;;11.10;94.97
69402;BME280;56589;51.992;5.924;2023-11-19T04:03:05;100138.13;;;11.03;95.00
69402;BME280;56589;51.992;5.924;2023-11-19T04:05:31;100154.38;;;10.97;95.60
69402;BME280;56589;51.992;5.924;2023-11-19T04:07:57;100156.50;;;10.92;95.44
69402;BME280;56589;51.992;5.924;2023-11-19T04:10:25;100145.50;;;10.87;95.53
69402;BME280;56589;51.992;5.924;2023-11-19T04:12:51;100150.34;;;10.80;95.53
69402;BME280;56589;51.992;5.924;2023-11-19T04:15:17;100142.81;;;10.76;95.31
69402;BME280;56589;51.992;5.924;2023-11-19T04:17:43;100153.56;;;10.73;95.39
69402;BME280;56589;51.992;5.924;2023-11-19T04:20:09;100145.78;;;10.71;95.33
69402;BME280;56589;51.992;5.924;2023-11-19T04:22:36;100149.47;;;10.69;95.71
69402;BME280;56589;51.992;5.924;2023-11-19T04:25:02;100160.09;;;10.67;95.36
69402;BME280;56589;51.992;5.924;2023-11-19T04:27:31;100169.84;;;10.65;95.44
69402;BME280;56589;51.992;5.924;2023-11-19T04:29:57;100170.94;;;10.63;95.11
69402;BME280;56589;51.992;5.924;2023-11-19T04:32:23;100164.22;;;10.58;95.28
69402;BME280;56589;51.992;5.924;2023-11-19T04:34:48;100168.03;;;10.54;95.38
69402;BME280;56589;51.992;5.924;2023-11-19T04:37:14;100162.88;;;10.53;95.00
69402;BME280;56589;51.992;5.924;2023-11-19T04:39:40;100175.28;;;10.51;94.99
69402;BME280;56589;51.992;5.924;2023-11-19T04:42:06;100178.16;;;10.48;95.13
69402;BME280;56589;51.992;5.924;2023-11-19T04:44:34;100171.34;;;10.45;94.87
69402;BME280;56589;51.992;5.924;2023-11-19T04:47:00;100171.44;;;10.44;95.02
69402;BME280;56589;51.992;5.924;2023-11-19T04:49:26;100175.13;;;10.41;94.79
69402;BME280;56589;51.992;5.924;2023-11-19T04:51:51;100163.19;;;10.37;95.05
69402;BME280;56589;51.992;5.924;2023-11-19T04:54:17;100168.56;;;10.36;94.78
69402;BME280;56589;51.992;5.924;2023-11-19T04:56:45;100173.91;;;10.34;94.97
69402;BME280;56589;51.992;5.924;2023-11-19T04:59:11;100161.13;;;10.29;94.99
69402;BME280;56589;51.992;5.924;2023-11-19T05:01:39;100166.59;;;10.26;94.55
69402;BME280;56589;51.992;5.924;2023-11-19T05:04:05;100173.75;;;10.24;94.63
69402;BME280;56589;51.992;5.924;2023-11-19T05:06:32;100170.38;;;10.22;94.75
69402;BME280;56589;51.992;5.924;2023-11-19T05:08:59;100181.09;;;10.19;94.88
69402;BME280;56589;51.992;5.924;2023-11-19T05:11:25;100170.81;;;10.16;94.90
69402;BME280;56589;51.992;5.924;2023-11-19T05:13:51;100167.34;;;10.16;94.81
69402;BME280;56589;51.992;5.924;2023-11-19T05:16:17;100168.19;;;10.16;94.76
69402;BME280;56589;51.992;5.924;2023-11-19T05:18:45;100178.59;;;10.18;94.71
69402;BME280;56589;51.992;5.924;2023-11-19T05:21:11;100178.69;;;10.16;95.01
69402;BME280;56589;51.992;5.924;2023-11-19T05:23:37;100174.28;;;10.17;95.18
69402;BME280;56589;51.992;5.924;2023-11-19T05:26:03;100178.59;;;10.18;95.21
69402;BME280;56589;51.992;5.924;2023-11-19T05:28:29;100183.72;;;10.19;95.14
69402;BME280;56589;51.992;5.924;2023-11-19T05:30:55;100184.31;;;10.23;94.87
69402;BME280;56589;51.992;5.924;2023-11-19T05:33:21;100192.81;;;10.26;95.43
69402;BME280;56589;51.992;5.924;2023-11-19T05:35:49;100185.47;;;10.32;95.49
69402;BME280;56589;51.992;5.924;2023-11-19T05:38:15;100174.72;;;10.35;94.95
69402;BME280;56589;51.992;5.924;2023-11-19T05:40:41;100178.94;;;10.37;95.29
69402;BME280;56589;51.992;5.924;2023-11-19T05:43:07;100174.41;;;10.39;94.67
69402;BME280;56589;51.992;5.924;2023-11-19T05:45:33;100180.50;;;10.40;94.82
69402;BME280;56589;51.992;5.924;2023-11-19T05:47:58;100183.94;;;10.40;94.75
69402;BME280;56589;51.992;5.924;2023-11-19T05:50:24;100179.66;;;10.39;94.27
69402;BME280;56589;51.992;5.924;2023-11-19T05:52:53;100179.53;;;10.41;94.56
69402;BME280;56589;51.992;5.924;2023-11-19T05:55:18;100183.00;;;10.41;94.25
69402;BME280;56589;51.992;5.924;2023-11-19T05:57:44;100168.94;;;10.42;94.53
69402;BME280;56589;51.992;5.924;2023-11-19T06:00:11;100176.81;;;10.42;94.11
69402;BME280;56589;51.992;5.924;2023-11-19T06:02:38;100178.59;;;10.42;94.06
69402;BME280;56589;51.992;5.924;2023-11-19T06:05:04;100184.69;;;10.42;94.19
69402;BME280;56589;51.992;5.924;2023-11-19T06:07:31;100190.78;;;10.43;94.00
69402;BME280;56589;51.992;5.924;2023-11-19T06:09:59;100187.91;;;10.46;93.76
69402;BME280;56589;51.992;5.924;2023-11-19T06:12:25;100185.28;;;10.46;93.64
69402;BME280;56589;51.992;5.924;2023-11-19T06:14:51;100181.00;;;10.45;93.80
69402;BME280;56589;51.992;5.924;2023-11-19T06:17:16;100182.78;;;10.44;93.44
69402;BME280;56589;51.992;5.924;2023-11-19T06:19:42;100187.06;;;10.45;93.45
69402;BME280;56589;51.992;5.924;2023-11-19T06:22:08;100191.63;;;10.43;93.21
69402;BME280;56589;51.992;5.924;2023-11-19T06:24:33;100189.09;;;10.42;93.19
69402;BME280;56589;51.992;5.924;2023-11-19T06:27:02;100201.47;;;10.40;93.10
69402;BME280;56589;51.992;5.924;2023-11-19T06:29:28;100202.31;;;10.40;93.16
69402;BME280;56589;51.992;5.924;2023-11-19T06:31:54;100189.19;;;10.40;92.91
69402;BME280;56589;51.992;5.924;2023-11-19T06:34:20;100187.66;;;10.38;92.79
69402;BME280;56589;51.992;5.924;2023-11-19T06:36:45;100182.50;;;10.36;93.22
69402;BME280;56589;51.992;5.924;2023-11-19T06:39:11;100187.84;;;10.35;92.77
69402;BME280;56589;51.992;5.924;2023-11-19T06:41:37;100189.75;;;10.33;92.71
69402;BME280;56589;51.992;5.924;2023-11-19T06:44:06;100191.56;;;10.32;92.85
69402;BME280;56589;51.992;5.924;2023-11-19T06:46:31;100196.09;;;10.30;92.98
69402;BME280;56589;51.992;5.924;2023-11-19T06:48:57;100202.16;;;10.30;92.81
69402;BME280;56589;51.992;5.924;2023-11-19T06:51:23;100203.94;;;10.30;92.98
69402;BME280;56589;51.992;5.924;2023-11-19T06:53:49;100202.16;;;10.30;93.15
69402;BME280;56589;51.992;5.924;2023-11-19T06:56:19;100206.34;;;10.33;92.88
69402;BME280;56589;51.992;5.924;2023-11-19T06:58:46;100208.00;;;10.34;93.30
69402;BME280;56589;51.992;5.924;2023-11-19T07:01:14;100216.63;;;10.36;92.80
69402;BME280;56589;51.992;5.924;2023-11-19T07:03:40;100218.41;;;10.36;92.71
69402;BME280;56589;51.992;5.924;2023-11-19T07:06:06;100223.66;;;10.36;92.71
69402;BME280;56589;51.992;5.924;2023-11-19T07:08:32;100223.66;;;10.36;92.84
69402;BME280;56589;51.992;5.924;2023-11-19T07:10:57;100225.41;;;10.35;92.52
69402;BME280;56589;51.992;5.924;2023-11-19T07:13:23;100226.28;;;10.36;92.72
69402;BME280;56589;51.992;5.924;2023-11-19T07:15:49;100234.88;;;10.38;92.91
69402;BME280;56589;51.992;5.924;2023-11-19T07:18:19;100240.84;;;10.40;92.57
69402;BME280;56589;51.992;5.924;2023-11-19T07:20:45;100227.72;;;10.40;92.73
69402;BME280;56589;51.992;5.924;2023-11-19T07:23:10;100236.34;;;10.42;92.56
69402;BME280;56589;51.992;5.924;2023-11-19T07:25:36;100234.56;;;10.42;92.91
69402;BME280;56589;51.992;5.924;2023-11-19T07:28:02;100236.22;;;10.43;92.93
69402;BME280;56589;51.992;5.924;2023-11-19T07:30:28;100242.31;;;10.44;92.55
69402;BME280;56589;51.992;5.924;2023-11-19T07:32:54;100233.59;;;10.43;92.44
69402;BME280;56589;51.992;5.924;2023-11-19T07:35:22;100240.53;;;10.44;92.23
69402;BME280;56589;51.992;5.924;2023-11-19T07:37:48;100247.69;;;10.42;92.39
69402;BME280;56589;51.992;5.924;2023-11-19T07:40:14;100251.34;;;10.40;92.34
69402;BME280;56589;51.992;5.924;2023-11-19T07:42:40;100251.22;;;10.41;92.38
69402;BME280;56589;51.992;5.924;2023-11-19T07:45:06;100255.56;;;10.42;91.95
69402;BME280;56589;51.992;5.924;2023-11-19T07:47:33;100254.59;;;10.43;92.43
69402;BME280;56589;51.992;5.924;2023-11-19T07:49:58;100246.59;;;10.45;92.37
69402;BME280;56589;51.992;5.924;2023-11-19T07:52:27;100257.75;;;10.48;92.27
69402;BME280;56589;51.992;5.924;2023-11-19T07:54:53;100267.03;;;10.52;92.45
69402;BME280;56589;51.992;5.924;2023-11-19T07:57:18;100260.84;;;10.53;92.03
69402;BME280;56589;51.992;5.924;2023-11-19T07:59:44;100266.72;;;10.57;92.24
69402;BME280;56589;51.992;5.924;2023-11-19T08:02:10;100265.66;;;10.60;92.02
69402;BME280;56589;51.992;5.924;2023-11-19T08:04:36;100255.91;;;10.62;91.79
69402;BME280;56589;51.992;5.924;2023-11-19T08:07:02;100254.63;;;10.67;92.13
69402;BME280;56589;51.992;5.924;2023-11-19T08:09:30;100262.88;;;10.74;91.77
69402;BME280;56589;51.992;5.924;2023-11-19T08:11:56;100257.81;;;10.83;92.00
69402;BME280;56589;51.992;5.924;2023-11-19T08:14:22;100247.59;;;10.92;91.76
69402;BME280;56589;51.992;5.924;2023-11-19T08:16:47;100256.56;;;11.00;91.58
69402;BME280;56589;51.992;5.924;2023-11-19T08:19:13;100254.31;;;11.07;91.91
69402;BME280;56589;51.992;5.924;2023-11-19T08:21:39;100263.66;;;11.11;91.27
69402;BME280;56589;51.992;5.924;2023-11-19T08:24:05;100262.69;;;11.12;90.77
69402;BME280;56589;51.992;5.924;2023-11-19T08:26:34;100272.25;;;11.13;90.41
69402;BME280;56589;51.992;5.924;2023-11-19T08:28:59;100268.91;;;11.11;90.28
69402;BME280;56589;51.992;5.924;2023-11-19T08:31:25;100262.81;;;11.10;90.25
69402;BME280;56589;51.992;5.924;2023-11-19T08:33:51;100267.25;;;11.10;90.05
69402;BME280;56589;51.992;5.924;2023-11-19T08:36:17;100265.53;;;11.09;90.02
69402;BME280;56589;51.992;5.924;2023-11-19T08:38:43;100258.63;;;11.08;89.64
69402;BME280;56589;51.992;5.924;2023-11-19T08:41:09;100264.69;;;11.08;90.02
69402;BME280;56589;51.992;5.924;2023-11-19T08:43:37;100261.25;;;11.08;89.96
69402;BME280;56589;51.992;5.924;2023-11-19T08:46:04;100260.28;;;11.09;90.16
69402;BME280;56589;51.992;5.924;2023-11-19T08:48:34;100257.78;;;11.07;89.74
69402;BME280;56589;51.992;5.924;2023-11-19T08:51:00;100252.53;;;11.07;89.98
69402;BME280;56589;51.992;5.924;2023-11-19T08:53:25;100266.28;;;11.11;89.91
69402;BME280;56589;51.992;5.924;2023-11-19T08:55:51;100266.03;;;11.14;89.61
69402;BME280;56589;51.992;5.924;2023-11-19T08:58:17;100279.91;;;11.16;89.77
69402;BME280;56589;51.992;5.924;2023-11-19T09:00:46;100267.63;;;11.17;89.09
69402;BME280;56589;51.992;5.924;2023-11-19T09:03:11;100280.50;;;11.20;88.99
69402;BME280;56589;51.992;5.924;2023-11-19T09:05:37;100264.63;;;11.21;89.31
69402;BME280;56589;51.992;5.924;2023-11-19T09:08:03;100272.16;;;11.26;89.10
69402;BME280;56589;51.992;5.924;2023-11-19T09:10:29;100268.50;;;11.28;89.03
69402;BME280;56589;51.992;5.924;2023-11-19T09:12:55;100259.66;;;11.29;89.03
69402;BME280;56589;51.992;5.924;2023-11-19T09:15:21;100273.38;;;11.33;88.73
69402;BME280;56589;51.992;5.924;2023-11-19T09:17:49;100267.06;;;11.35;88.60
69402;BME280;56589;51.992;5.924;2023-11-19T09:20:17;100273.88;;;11.38;88.37
69402;BME280;56589;51.992;5.924;2023-11-19T09:22:43;100261.47;;;11.40;88.67
69402;BME280;56589;51.992;5.924;2023-11-19T09:25:09;100264.69;;;11.44;88.25
69402;BME280;56589;51.992;5.924;2023-11-19T09:27:35;100270.66;;;11.46;88.20
69402;BME280;56589;51.992;5.924;2023-11-19T09:30:01;100263.50;;;11.48;88.39
69402;BME280;56589;51.992;5.924;2023-11-19T09:32:26;100273.06;;;11.49;88.03
69402;BME280;56589;51.992;5.924;2023-11-19T09:34:55;100277.38;;;11.50;88.02
69402;BME280;56589;51.992;5.924;2023-11-19T09:37:20;100269.25;;;11.53;88.09
69402;BME280;56589;51.992;5.924;2023-11-19T09:39:46;100258.63;;;11.54;87.96
69402;BME280;56589;51.992;5.924;2023-11-19T09:42:12;100269.72;;;11.58;87.86
69402;BME280;56589;51.992;5.924;2023-11-19T09:44:38;100272.63;;;11.66;87.94
69402;BME280;56589;51.992;5.924;2023-11-19T09:47:08;100272.38;;;11.69;87.60
69402;BME280;56589;51.992;5.924;2023-11-19T09:49:36;100269.53;;;11.72;87.43
69402;BME280;56589;51.992;5.924;2023-11-19T09:52:05;100267.84;;;11.71;86.48
69402;BME280;56589;51.992;5.924;2023-11-19T09:54:31;100264.59;;;11.68;86.29
69402;BME280;56589;51.992;5.924;2023-11-19T09:57:02;100260.44;;;11.65;86.83
69402;BME280;56589;51.992;5.924;2023-11-19T09:59:29;100257.91;;;11.63;86.85
69402;BME280;56589;51.992;5.924;2023-11-19T10:01:56;100258.38;;;11.69;87.04
69402;BME280;56589;51.992;5.924;2023-11-19T10:04:22;100258.66;;;11.77;87.21
69402;BME280;56589;51.992;5.924;2023-11-19T10:06:49;100250.75;;;11.88;86.70
69402;BME280;56589;51.992;5.924;2023-11-19T10:09:19;100257.09;;;11.97;86.87
69402;BME280;56589;51.992;5.924;2023-11-19T10:11:45;100252.53;;;11.99;86.40
69402;BME280;56589;51.992;5.924;2023-11-19T10:14:11;100260.31;;;12.00;86.15
69402;BME280;56589;51.992;5.924;2023-11-19T10:16:38;100261.13;;;12.01;85.55
69402;BME280;56589;51.992;5.924;2023-11-19T10:19:04;100257.44;;;12.03;86.01
69402;BME280;56589;51.992;5.924;2023-11-19T10:21:32;100259.25;;;12.03;85.64
69402;BME280;56589;51.992;5.924;2023-11-19T10:23:58;100256.50;;;12.04;85.75
69402;BME280;56589;51.992;5.924;2023-11-19T10:26:27;100247.75;;;12.04;85.47
69402;BME280;56589;51.992;5.924;2023-11-19T10:28:55;100241.78;;;12.02;85.05
69402;BME280;56589;51.992;5.924;2023-11-19T10:31:21;100246.31;;;12.00;84.84
69402;BME280;56589;51.992;5.924;2023-11-19T10:33:47;100242.00;;;11.99;85.25
69402;BME280;56589;51.992;5.924;2023-11-19T10:36:14;100242.84;;;11.99;84.95
69402;BME280;56589;51.992;5.924;2023-11-19T10:38:40;100248.13;;;11.99;84.81
69402;BME280;56589;51.992;5.924;2023-11-19T10:41:29;100240.97;;;12.01;84.99
69402;BME280;56589;51.992;5.924;2023-11-19T10:43:56;100235.91;;;11.98;84.54
69402;BME280;56589;51.992;5.924;2023-11-19T10:46:22;100241.78;;;12.02;84.96
69402;BME280;56589;51.992;5.924;2023-11-19T10:48:48;100239.50;;;12.08;85.11
69402;BME280;56589;51.992;5.924;2023-11-19T10:51:18;100231.00;;;12.16;84.65
69402;BME280;56589;51.992;5.924;2023-11-19T10:53:45;100231.38;;;12.23;84.76
69402;BME280;56589;51.992;5.924;2023-11-19T10:56:11;100227.75;;;12.35;84.50
69402;BME280;56589;51.992;5.924;2023-11-19T10:58:45;100230.00;;;12.51;84.52
69402;BME280;56589;51.992;5.924;2023-11-19T11:01:20;100225.66;;;12.61;84.25
69402;BME280;56589;51.992;5.924;2023-11-19T11:03:50;100220.94;;;12.76;83.19
69402;BME280;56589;51.992;5.924;2023-11-19T11:06:18;100219.72;;;12.80;83.10
69402;BME280;56589;51.992;5.924;2023-11-19T11:08:46;100220.81;;;12.77;82.44
69402;BME280;56589;51.992;5.924;2023-11-19T11:11:17;100225.81;;;12.80;82.68
69402;BME280;56589;51.992;5.924;2023-11-19T11:13:47;100218.38;;;12.85;82.09
69402;BME280;56589;51.992;5.924;2023-11-19T11:16:15;100217.03;;;12.91;81.71
69402;BME280;56589;51.992;5.924;2023-11-19T11:18:44;100222.25;;;13.02;81.90
69402;BME280;56589;51.992;5.924;2023-11-19T11:21:14;100224.09;;;13.11;81.17
69402;BME280;56589;51.992;5.924;2023-11-19T11:27:32;100197.22;;;13.17;80.69
69402;BME280;56589;51.992;5.924;2023-11-19T11:30:34;100210.31;;;13.19;79.64
69402;BME280;56589;51.992;5.924;2023-11-19T11:33:29;100208.19;;;13.13;79.40
69402;BME280;56589;51.992;5.924;2023-11-19T11:36:13;100218.97;;;13.10;79.25
69402;BME280;56589;51.992;5.924;2023-11-19T11:38:47;100203.66;;;13.04;79.58
69402;BME280;56589;51.992;5.924;2023-11-19T11:41:18;100204.03;;;12.99;79.63
69402;BME280;56589;51.992;5.924;2023-11-19T11:43:47;100209.00;;;12.92;78.59
69402;BME280;56589;51.992;5.924;2023-11-19T11:49:28;100209.91;;;12.82;79.83
69402;BME280;56589;51.992;5.924;2023-11-19T11:52:02;100210.00;;;12.80;80.13
69402;BME280;56589;51.992;5.924;2023-11-19T11:54:29;100187.25;;;12.79;80.13
69402;BME280;56589;51.992;5.924;2023-11-19T11:57:11;100193.25;;;12.81;80.04
69402;BME280;56589;51.992;5.924;2023-11-19T11:59:48;100186.63;;;12.87;79.71
69402;BME280;56589;51.992;5.924;2023-11-19T12:02:18;100191.88;;;12.87;79.56
69402;BME280;56589;51.992;5.924;2023-11-19T12:04:48;100203.53;;;12.84;79.20
69402;BME280;56589;51.992;5.924;2023-11-19T12:07:17;100196.72;;;12.82;79.15
69402;BME280;56589;51.992;5.924;2023-11-19T12:09:47;100193.78;;;12.75;79.57
69402;BME280;56589;51.992;5.924;2023-11-19T12:12:21;100184.50;;;12.81;79.97
69402;BME280;56589;51.992;5.924;2023-11-19T12:15:06;100171.72;;;12.97;79.91
69402;BME280;56589;51.992;5.924;2023-11-19T12:17:41;100177.38;;;13.13;79.66
69402;BME280;56589;51.992;5.924;2023-11-19T12:20:09;100186.56;;;13.19;79.05
69402;BME280;56589;51.992;5.924;2023-11-19T12:22:36;100184.63;;;13.21;78.70
69402;BME280;56589;51.992;5.924;2023-11-19T12:25:04;100187.53;;;13.18;78.00
69402;BME280;56589;51.992;5.924;2023-11-19T12:27:31;100183.22;;;13.17;78.28
69402;BME280;56589;51.992;5.924;2023-11-19T12:29:57;100194.59;;;13.17;78.38
69402;BME280;56589;51.992;5.924;2023-11-19T12:32:23;100182.13;;;13.19;77.64
69402;BME280;56589;51.992;5.924;2023-11-19T12:34:51;100197.81;;;13.21;77.72
69402;BME280;56589;51.992;5.924;2023-11-19T12:37:17;100197.88;;;13.31;77.55
69402;BME280;56589;51.992;5.924;2023-11-19T12:39:43;100189.56;;;13.35;76.79
69402;BME280;56589;51.992;5.924;2023-11-19T12:42:09;100180.00;;;13.34;76.76
69402;BME280;56589;51.992;5.924;2023-11-19T12:44:34;100183.22;;;13.38;77.08
69402;BME280;56589;51.992;5.924;2023-11-19T12:47:01;100201.16;;;13.44;77.06
69402;BME280;56589;51.992;5.924;2023-11-19T12:49:28;100191.28;;;13.46;76.87
69402;BME280;56589;51.992;5.924;2023-11-19T12:51:57;100180.88;;;13.44;76.34
69402;BME280;56589;51.992;5.924;2023-11-19T12:54:32;100196.72;;;13.44;76.39
69402;BME280;56589;51.992;5.924;2023-11-19T12:56:58;100198.50;;;13.44;76.17